Nearby METAR Reports

 

KBJC - Broomfield/Jeffc, Colorado, USA
Distance from station: N 0mi, 0km
Updated: Fri, 09-Dec-2022 11:35pm MST
Clear
Clear
 Wind from WNW
Wind: WNW 17 mph , 28 km/h, Gust: 25 mph , 41 km/h
Temperature: 39°F , 4°C
Wind Chill: 30°F , -1°C
Dew Point: 5°F , -15°C
Humidity: 24%
Barometer: 30.04 inHg , 1017.3 hPa
Clouds: Clear
Visibility: 10 miles , 16 km
2022/12/10 06:35 KBJC 100635Z AUTO 29015G22KT 10SM CLR 04/M15 A3004 RMK AO2
KEIK - Erie Muni, Colorado, USA
Distance from station: N 5mi, 9km
Updated: Fri, 09-Dec-2022 11:35pm MST
Clear
Clear
 Wind from W
Wind: W 14 mph , 22 km/h
Temperature: 37°F , 3°C
Wind Chill: 28°F , -2°C
Dew Point: 7°F , -14°C
Humidity: 28%
Barometer: 30.03 inHg , 1016.9 hPa
Clouds: Clear
Visibility: 10 miles , 16 km
2022/12/10 06:35 KEIK 100635Z AUTO 26012KT 10SM CLR 03/M14 A3003 RMK AO2 T00271140
 
KBDU - Boulder Muni, Colorado, USA
Distance from station: NW 11mi, 17km
Updated: Fri, 09-Dec-2022 11:35pm MST
Clear
Clear
 Wind from WNW
Wind: WNW 5 mph , 7 km/h
Temperature: 34°F , 1°C
Wind Chill: 29°F , -2°C
Dew Point: 10°F , -12°C
Humidity: 38%
Barometer: 30.03 inHg , 1016.9 hPa
Clouds: Clear
Visibility: 10 miles , 16 km
2022/12/10 06:35 KBDU 100635Z AUTO 29004KT 10SM CLR 01/M12 A3003 RMK AO2
KLMO - Longmont/Vbrand, Colorado, USA
Distance from station: NNW 16mi, 27km
Updated: Fri, 09-Dec-2022 11:35pm MST
Clear
Clear
 Wind from WSW
Wind: WSW 10 mph , 17 km/h, Gust: 23 mph , 37 km/h
Temperature: 43°F , 6°C
Wind Chill: 37°F , 3°C
Dew Point: 9°F , -13°C
Humidity: 24%
Barometer: 30.06 inHg , 1017.9 hPa
Clouds: Clear
Visibility: 10 miles , 16 km
2022/12/10 06:35 KLMO 100635Z AUTO 25009G20KT 10SM CLR 06/M13 A3006 RMK AO2 T00601132
 
KBKF - Buckley Angb/Den, Colorado, USA
Distance from station: SE 23mi, 37km
Updated: Fri, 09-Dec-2022 10:58pm MST
Clear
Clear
 Wind from ESE
Wind: ESE 9 mph , 15 km/h
Temperature: 28°F , -2°C
Wind Chill: 19°F , -7°C
Dew Point: 5°F , -15°C
Humidity: 37%
Barometer: 30.02 inHg , 1016.6 hPa
Clouds: Clear
Visibility: 10 miles , 16 km
2022/12/10 05:58 KBKF 100558Z 11008KT 10SM CLR M02/M15 A3002 RMK AO2A SLP162 T10241155 10039 21048 52020
KDEN - Denver (dia), Colorado, USA
Distance from station: ESE 23mi, 37km
Updated: Fri, 09-Dec-2022 10:53pm MST
Clear
Clear
 Wind from varies
Wind: varies 3 mph , 6 km/h
Temperature: 36°F , 2°C
Dew Point: 7°F , -14°C
Humidity: 30%
Barometer: 30.03 inHg , 1016.9 hPa
Clouds: Clear
Visibility: 10 miles , 16 km
2022/12/10 05:53 KDEN 100553Z VRB03KT 10SM CLR 02/M14 A3003 RMK AO2 SLP165 T00221144 10050 21056 51021
 
KAPA - Denver/Arapahoe, Colorado, USA
Distance from station: SSE 28mi, 46km
Updated: Fri, 09-Dec-2022 10:53pm MST
Clear
Clear
 Wind from ESE
Wind: ESE 5 mph , 7 km/h
Temperature: 28°F , -2°C
Wind Chill: 22°F , -6°C
Dew Point: 7°F , -14°C
Humidity: 40%
Barometer: 30.03 inHg , 1016.9 hPa
Clouds: Clear
Visibility: 10 miles , 16 km
2022/12/10 05:53 KAPA 100553Z 11004KT 10SM CLR M02/M14 A3003 RMK AO2 SLP176 T10221144 10050 21033 53017
KFNL - Ft Collins/Lovel, Colorado, USA
Distance from station: N 35mi, 57km
Updated: Fri, 09-Dec-2022 10:56pm MST
Clear
Clear
 Wind from W
Wind: W 15 mph , 24 km/h, Gust: 23 mph , 37 km/h
Temperature: 39°F , 4°C
Wind Chill: 31°F , -1°C
Dew Point: 9°F , -13°C
Humidity: 28%
Barometer: 30.02 inHg , 1016.6 hPa
Clouds: Clear
Visibility: 10 miles , 16 km
2022/12/10 05:56 KFNL 100556Z 27013G20KT 10SM CLR 04/M13 A3002 RMK AO2 SLP166 T00441133 10067 20022 53014
 
K0CO - Berthoud Pass, Colorado, USA
Distance from station: WSW 38mi, 61km
Updated: Fri, 09-Dec-2022 11:35pm MST
Clear
Clear
 Wind from W
Wind: W 48 mph , 78 km/h, Gust: 70 mph , 113 km/h
Temperature: 9°F , -13°C
Wind Chill: -18°F , -28°C
Dew Point: -6°F , -21°C
Humidity: 51%
Barometer: 29.96 inHg , 1014.6 hPa
Clouds: Clear
Visibility: 10 miles , 16 km
2022/12/10 06:35 K0CO 100635Z AUTO 28042G61KT 10SM CLR M13/M21 A2996 RMK AO2
KGXY - Greeley/Weld, Colorado, USA
Distance from station: NE 41mi, 66km
Updated: Fri, 09-Dec-2022 10:56pm MST
Clear
Clear
 Wind from NNE
Wind: NNE 6 mph , 9 km/h
Temperature: 28°F , -2°C
Wind Chill: 21°F , -6°C
Dew Point: 19°F , -7°C
Humidity: 69%
Barometer: 30.04 inHg , 1017.3 hPa
Clouds: Clear
Visibility: 10 miles , 16 km
2022/12/10 05:56 KGXY 100556Z AUTO 03005KT 10SM CLR M02/M07 A3004 RMK AO2 SLP212 T10221072 10033 21050 51018 FZRANO